Time;durP1;ratioP1;P1;durP2;ratioP2;P2;SDS_P1;SDS_P2;PMS_P1;PMS_P2;Temp;Humidity;BMP_temperature;BMP_pressure;BME280_temperature;BME280_humidity;BME280_pressure;Samples;Min_cycle;Max_cycle;Signal;HPM_P1;HPM_P2
2023/05/26 00:01:11;;;;;;;20.00;3.10;;;10.20;99.90;;;;;;5047125;28;20041;-77
2023/05/26 00:03:38;;;;;;;19.75;3.35;;;10.20;99.90;;;;;;5035564;28;20107;-78
2023/05/26 00:06:09;;;;;;;21.30;3.33;;;10.20;99.90;;;;;;5036304;28;20042;-78
2023/05/26 00:08:36;;;;;;;21.87;3.23;;;10.20;99.90;;;;;;5036145;28;20037;-78
2023/05/26 00:11:03;;;;;;;35.30;3.40;;;10.20;99.90;;;;;;5017657;28;20340;-77
2023/05/26 00:13:30;;;;;;;24.75;3.63;;;10.10;99.90;;;;;;5036439;28;20041;-78
2023/05/26 00:15:56;;;;;;;19.23;3.40;;;10.10;99.90;;;;;;5040683;28;20439;-77
2023/05/26 00:18:26;;;;;;;16.60;3.38;;;10.10;99.90;;;;;;5039114;28;20056;-77
2023/05/26 00:20:53;;;;;;;22.27;3.15;;;10.10;99.90;;;;;;5056586;28;20048;-77
2023/05/26 00:23:20;;;;;;;24.33;3.85;;;10.00;99.90;;;;;;5037656;28;20055;-77
2023/05/26 00:25:46;;;;;;;19.77;3.08;;;10.00;99.90;;;;;;5056096;28;20071;-78
2023/05/26 00:28:13;;;;;;;28.00;4.07;;;10.10;99.90;;;;;;5038593;28;20041;-78
2023/05/26 00:30:40;;;;;;;21.88;3.50;;;10.00;99.90;;;;;;5054797;28;20079;-77
2023/05/26 00:33:06;;;;;;;22.52;3.95;;;10.00;99.90;;;;;;5056255;28;20506;-77
2023/05/26 00:35:33;;;;;;;14.75;2.72;;;10.10;99.90;;;;;;5054989;28;20044;-78
2023/05/26 00:38:00;;;;;;;17.67;2.60;;;10.00;99.90;;;;;;5038268;28;20460;-77
2023/05/26 00:40:26;;;;;;;17.63;3.40;;;10.00;99.90;;;;;;5038055;28;20049;-77
2023/05/26 00:42:53;;;;;;;16.33;3.35;;;10.00;99.90;;;;;;5065940;28;20052;-77
2023/05/26 00:45:20;;;;;;;27.20;3.70;;;10.00;99.90;;;;;;5075876;28;20352;-77
2023/05/26 00:47:46;;;;;;;18.23;3.97;;;10.00;99.90;;;;;;5075712;28;20098;-77
2023/05/26 00:50:13;;;;;;;26.48;4.00;;;10.00;99.90;;;;;;5056303;28;20033;-78
2023/05/26 00:52:40;;;;;;;14.18;2.97;;;9.90;99.90;;;;;;5074266;28;20051;-78
2023/05/26 00:55:07;;;;;;;22.40;3.08;;;10.00;99.90;;;;;;5074560;28;20055;-78
2023/05/26 00:57:33;;;;;;;24.40;3.05;;;10.00;99.90;;;;;;5073417;28;20045;-78
2023/05/26 01:00:00;;;;;;;22.52;2.95;;;10.00;99.90;;;;;;5057811;28;20066;-78
2023/05/26 01:02:28;;;;;;;21.20;3.45;;;10.00;99.90;;;;;;5074342;28;20052;-78
2023/05/26 01:04:57;;;;;;;23.40;4.28;;;10.00;99.90;;;;;;5074432;28;20041;-77
2023/05/26 01:07:24;;;;;;;12.80;2.75;;;10.00;99.90;;;;;;5075258;28;20090;-77
2023/05/26 01:09:51;;;;;;;15.18;3.05;;;10.00;99.90;;;;;;5074028;28;20036;-77
2023/05/26 01:12:18;;;;;;;18.50;3.10;;;10.00;99.90;;;;;;5054188;28;20037;-77
2023/05/26 01:14:44;;;;;;;18.40;2.60;;;10.00;99.90;;;;;;5067959;28;20068;-77
2023/05/26 01:17:12;;;;;;;14.77;2.60;;;10.00;99.90;;;;;;5056658;28;20053;-78
2023/05/26 01:19:40;;;;;;;19.73;3.72;;;10.00;99.90;;;;;;5068231;28;20398;-78
2023/05/26 01:22:08;;;;;;;17.65;3.35;;;10.10;99.90;;;;;;5072787;28;20055;-78
2023/05/26 01:24:36;;;;;;;18.90;3.53;;;10.10;99.90;;;;;;5071819;28;20040;-77
2023/05/26 01:27:06;;;;;;;20.50;3.30;;;10.10;99.90;;;;;;5057238;28;20059;-77
2023/05/26 01:29:33;;;;;;;14.93;2.33;;;10.10;99.90;;;;;;5056091;28;20075;-77
2023/05/26 01:31:59;;;;;;;15.98;2.92;;;10.10;99.90;;;;;;5074044;28;20493;-77
2023/05/26 01:34:26;;;;;;;14.98;2.80;;;10.20;99.90;;;;;;5073792;28;20356;-77
2023/05/26 01:36:53;;;;;;;14.85;2.55;;;10.10;99.90;;;;;;5073097;28;20101;-77
2023/05/26 01:39:20;;;;;;;14.35;2.95;;;10.20;99.90;;;;;;5074545;28;20115;-78
2023/05/26 01:41:47;;;;;;;17.88;2.95;;;10.20;99.90;;;;;;5067681;28;20066;-78
2023/05/26 01:44:14;;;;;;;18.27;3.22;;;10.20;99.90;;;;;;5053764;28;20119;-78
2023/05/26 01:46:40;;;;;;;13.65;2.67;;;10.30;99.90;;;;;;5054824;28;20353;-78
2023/05/26 01:49:07;;;;;;;16.67;3.03;;;10.30;99.90;;;;;;5035809;28;20041;-78
2023/05/26 01:51:35;;;;;;;24.50;4.13;;;10.30;99.90;;;;;;5037231;28;20045;-78
2023/05/26 01:54:02;;;;;;;13.70;3.03;;;10.30;99.90;;;;;;5037434;28;20505;-78
2023/05/26 01:56:30;;;;;;;18.23;3.17;;;10.40;99.90;;;;;;5036168;28;20098;-77
2023/05/26 01:58:57;;;;;;;12.02;2.75;;;10.40;99.90;;;;;;5036795;28;20036;-77
2023/05/26 02:01:23;;;;;;;24.60;3.58;;;10.40;99.90;;;;;;5036864;28;20060;-77
2023/05/26 02:03:50;;;;;;;19.05;3.08;;;10.40;99.90;;;;;;5035904;28;20076;-77
2023/05/26 02:06:17;;;;;;;17.27;3.15;;;10.40;99.90;;;;;;5036788;28;20044;-77
2023/05/26 02:08:44;;;;;;;14.48;3.53;;;10.40;99.90;;;;;;5054097;28;20060;-78
2023/05/26 02:11:11;;;;;;;24.50;3.45;;;10.40;99.90;;;;;;5035754;28;20455;-77
2023/05/26 02:13:37;;;;;;;18.83;3.03;;;10.40;99.90;;;;;;5036288;28;20045;-78
2023/05/26 02:16:04;;;;;;;16.08;2.83;;;10.40;99.90;;;;;;5035246;28;20045;-77
2023/05/26 02:18:33;;;;;;;16.85;2.78;;;10.40;99.90;;;;;;5036108;28;20052;-77
2023/05/26 02:21:00;;;;;;;22.58;3.40;;;10.40;99.90;;;;;;5036776;28;20386;-78
2023/05/26 02:23:27;;;;;;;21.67;3.25;;;10.40;99.90;;;;;;5035862;28;20045;-77
2023/05/26 02:25:54;;;;;;;19.15;3.38;;;10.50;99.90;;;;;;5054159;28;20040;-78
2023/05/26 02:28:20;;;;;;;17.58;3.38;;;10.50;99.90;;;;;;5036523;28;20455;-78
2023/05/26 02:30:47;;;;;;;17.10;2.88;;;10.40;99.90;;;;;;5035794;28;20467;-78
2023/05/26 02:33:14;;;;;;;16.02;3.47;;;10.40;99.90;;;;;;5037163;28;20068;-78
2023/05/26 02:35:41;;;;;;;20.95;3.03;;;10.40;99.90;;;;;;5053231;28;20071;-78
2023/05/26 02:38:07;;;;;;;22.30;3.88;;;10.40;99.90;;;;;;5036510;28;20114;-79
2023/05/26 02:40:34;;;;;;;27.45;3.78;;;10.30;99.90;;;;;;5058125;28;20094;-78
2023/05/26 02:43:01;;;;;;;11.45;3.17;;;10.40;99.90;;;;;;5070247;28;20094;-78
2023/05/26 02:45:27;;;;;;;28.83;3.85;;;10.40;99.90;;;;;;5078054;28;20044;-78
2023/05/26 02:47:54;;;;;;;12.95;2.97;;;10.40;99.90;;;;;;5077065;28;20068;-77
2023/05/26 02:50:22;;;;;;;21.48;3.17;;;10.40;99.90;;;;;;5059021;28;20131;-78
2023/05/26 02:52:49;;;;;;;22.52;3.97;;;10.40;99.90;;;;;;5078084;28;20040;-78
2023/05/26 02:55:15;;;;;;;18.17;3.55;;;10.40;99.90;;;;;;5077282;28;20036;-77
2023/05/26 02:57:42;;;;;;;21.15;3.55;;;10.40;99.90;;;;;;5075847;28;20469;-77
2023/05/26 03:00:12;;;;;;;17.92;3.33;;;10.40;99.90;;;;;;5077227;28;20036;-78
2023/05/26 03:02:39;;;;;;;21.13;3.55;;;10.40;99.90;;;;;;5074306;28;20494;-77
2023/05/26 03:05:06;;;;;;;24.02;3.28;;;10.40;99.90;;;;;;5057927;28;20483;-78
2023/05/26 03:07:34;;;;;;;19.33;3.20;;;10.40;99.90;;;;;;5056392;28;20041;-78
2023/05/26 03:10:02;;;;;;;26.08;3.42;;;10.40;99.90;;;;;;5055327;28;20037;-77
2023/05/26 03:12:29;;;;;;;18.00;3.50;;;10.40;99.90;;;;;;5056517;28;20048;-78
2023/05/26 03:14:56;;;;;;;18.83;3.45;;;10.40;99.90;;;;;;5053921;28;20394;-77
2023/05/26 03:17:23;;;;;;;22.77;3.58;;;10.40;99.90;;;;;;5072986;28;20148;-78
2023/05/26 03:19:50;;;;;;;28.63;4.20;;;10.50;99.90;;;;;;5076270;28;20383;-78
2023/05/26 03:22:17;;;;;;;16.40;3.88;;;10.50;99.90;;;;;;5075582;28;20049;-78
2023/05/26 03:25:04;;;;;;;28.02;3.80;;;10.40;99.90;;;;;;5076483;28;20464;-78
2023/05/26 03:27:37;;;;;;;18.08;4.05;;;10.40;99.90;;;;;;5060804;28;20037;-78
2023/05/26 03:30:04;;;;;;;23.02;3.42;;;10.50;99.90;;;;;;5074912;28;20036;-78
2023/05/26 03:32:31;;;;;;;22.35;3.47;;;10.40;99.90;;;;;;5077398;28;20091;-78
2023/05/26 03:34:58;;;;;;;17.77;3.00;;;10.40;99.90;;;;;;5076115;28;20055;-78
2023/05/26 03:37:25;;;;;;;17.45;3.15;;;10.40;99.90;;;;;;5058444;28;20056;-78
2023/05/26 03:39:51;;;;;;;16.45;3.72;;;10.40;99.90;;;;;;5076843;28;20448;-78
2023/05/26 03:42:22;;;;;;;19.30;3.60;;;10.40;99.90;;;;;;5074805;28;20052;-77
2023/05/26 03:44:50;;;;;;;17.98;3.35;;;10.40;99.90;;;;;;5076490;28;20048;-78
2023/05/26 03:47:17;;;;;;;15.63;3.05;;;10.30;99.90;;;;;;5075894;28;20041;-78
2023/05/26 03:49:43;;;;;;;18.88;2.95;;;10.30;99.90;;;;;;5074709;28;20436;-78
2023/05/26 03:52:10;;;;;;;14.02;2.97;;;10.30;99.90;;;;;;5075476;28;20044;-78
2023/05/26 03:54:37;;;;;;;22.40;3.75;;;10.30;99.90;;;;;;5075952;28;20105;-77
2023/05/26 03:57:04;;;;;;;26.23;3.83;;;10.30;99.90;;;;;;5058106;28;20041;-78
2023/05/26 03:59:30;;;;;;;21.02;3.42;;;10.30;99.90;;;;;;5075266;28;20052;-78
2023/05/26 04:01:57;;;;;;;21.17;3.45;;;10.30;99.90;;;;;;5076516;28;20036;-78
2023/05/26 04:04:25;;;;;;;16.60;2.85;;;10.30;99.90;;;;;;5057976;28;20437;-78
2023/05/26 04:06:52;;;;;;;20.48;3.00;;;10.30;99.90;;;;;;5075523;28;20041;-78
2023/05/26 04:09:19;;;;;;;10.15;2.63;;;10.40;99.90;;;;;;5074219;28;20048;-78
2023/05/26 04:11:46;;;;;;;15.00;3.30;;;10.30;99.90;;;;;;5076479;28;20075;-78
2023/05/26 04:14:13;;;;;;;17.20;2.90;;;10.30;99.90;;;;;;5075238;28;20049;-78
2023/05/26 04:16:40;;;;;;;16.55;3.33;;;10.30;99.90;;;;;;5074133;28;20143;-78
2023/05/26 04:19:07;;;;;;;16.92;3.08;;;10.40;99.90;;;;;;5058249;28;20053;-78
2023/05/26 04:21:33;;;;;;;15.15;3.40;;;10.40;99.90;;;;;;5076328;28;20127;-78
2023/05/26 04:24:00;;;;;;;21.15;3.33;;;10.50;99.90;;;;;;5057700;28;20433;-78
2023/05/26 04:26:28;;;;;;;20.95;3.95;;;10.40;99.90;;;;;;5075281;28;20123;-78
2023/05/26 04:28:59;;;;;;;;;;;10.50;99.90;;;;;;5074194;28;20045;-78
2023/05/26 04:31:40;;;;;;;19.05;4.25;;;10.50;99.90;;;;;;5074566;28;20331;-78
2023/05/26 04:34:38;;;;;;;26.90;4.10;;;10.50;99.90;;;;;;5075227;28;20044;-79
2023/05/26 04:37:15;;;;;;;11.35;2.97;;;10.50;99.90;;;;;;5075067;28;20044;-78
2023/05/26 04:39:42;;;;;;;13.57;3.10;;;10.50;99.90;;;;;;5075962;28;20379;-78
2023/05/26 04:42:09;;;;;;;17.60;3.28;;;10.50;99.90;;;;;;5065896;28;20063;-78
2023/05/26 04:44:40;;;;;;;13.82;2.67;;;10.50;99.90;;;;;;5037510;28;20403;-78
2023/05/26 04:47:08;;;;;;;15.88;3.13;;;10.50;99.90;;;;;;5038197;28;20106;-78
2023/05/26 04:49:35;;;;;;;11.18;2.80;;;10.50;99.90;;;;;;5036744;28;20489;-79
2023/05/26 04:52:02;;;;;;;22.58;3.95;;;10.60;99.90;;;;;;5038159;28;20056;-78
2023/05/26 04:54:29;;;;;;;17.70;2.92;;;10.60;99.90;;;;;;5037766;28;20128;-79
2023/05/26 04:56:56;;;;;;;31.35;3.97;;;10.60;99.90;;;;;;5020692;28;20056;-78
2023/05/26 04:59:34;;;;;;;20.73;4.30;;;10.60;99.90;;;;;;5037759;28;20143;-78
2023/05/26 05:02:00;;;;;;;16.25;2.90;;;10.70;99.90;;;;;;5055185;28;20491;-78
2023/05/26 05:04:33;;;;;;;15.05;2.83;;;10.80;99.90;;;;;;5036962;28;20124;-78
2023/05/26 05:06:59;;;;;;;28.17;4.70;;;10.70;99.90;;;;;;5037755;28;20045;-78
2023/05/26 05:09:26;;;;;;;22.05;3.13;;;10.70;99.90;;;;;;5036417;28;20037;-78
2023/05/26 05:11:53;;;;;;;20.70;3.85;;;10.70;99.90;;;;;;5037710;28;20057;-78
2023/05/26 05:14:20;;;;;;;20.92;2.95;;;10.80;99.90;;;;;;5037640;28;20037;-78
2023/05/26 05:16:48;;;;;;;20.17;2.97;;;10.80;99.90;;;;;;5036275;28;20071;-78
2023/05/26 05:19:15;;;;;;;18.70;3.30;;;10.80;99.90;;;;;;5036988;28;20158;-78
2023/05/26 05:21:50;;;;;;;29.63;4.07;;;11.00;99.90;;;;;;5037408;28;20075;-78
2023/05/26 05:24:17;;;;;;;13.32;3.42;;;11.00;99.90;;;;;;5036534;28;20430;-78
2023/05/26 05:26:44;;;;;;;24.20;2.92;;;11.00;99.90;;;;;;5037439;28;20045;-79
2023/05/26 05:29:13;;;;;;;21.75;3.33;;;11.00;99.90;;;;;;5036345;28;20055;-79
2023/05/26 05:31:42;;;;;;;18.65;3.17;;;11.10;99.90;;;;;;5037533;28;20416;-78
2023/05/26 05:34:09;;;;;;;13.65;2.75;;;11.10;99.90;;;;;;5037242;28;20107;-78
2023/05/26 05:36:36;;;;;;;16.45;3.17;;;11.20;99.90;;;;;;5036360;28;20051;-79
2023/05/26 05:39:03;;;;;;;20.40;3.80;;;11.20;99.90;;;;;;5036870;28;20136;-78
2023/05/26 05:41:30;;;;;;;17.80;3.83;;;11.30;99.90;;;;;;5043282;28;20055;-79
2023/05/26 05:43:57;;;;;;;14.15;2.95;;;11.40;99.90;;;;;;5072490;28;20137;-78
2023/05/26 05:46:25;;;;;;;25.40;3.33;;;11.40;99.90;;;;;;5057083;28;20047;-78
2023/05/26 05:49:12;;;;;;;15.82;3.10;;;11.50;99.90;;;;;;5072677;28;20227;-78
2023/05/26 05:51:43;;;;;;;14.55;3.17;;;11.50;99.90;;;;;;5073584;28;20051;-78
2023/05/26 05:54:09;;;;;;;14.50;3.33;;;11.60;99.90;;;;;;5057322;28;20127;-78
2023/05/26 05:56:36;;;;;;;21.25;4.03;;;11.50;99.90;;;;;;5072671;28;20047;-78
2023/05/26 05:59:05;;;;;;;16.73;3.67;;;11.60;99.90;;;;;;5056721;28;20496;-78
2023/05/26 06:01:32;;;;;;;16.67;3.63;;;11.60;99.90;;;;;;5073206;28;20051;-78
2023/05/26 06:03:59;;;;;;;18.95;3.83;;;11.70;99.90;;;;;;5072489;28;20055;-78
2023/05/26 06:06:26;;;;;;;19.90;3.10;;;11.70;99.90;;;;;;5073292;28;20041;-79
2023/05/26 06:08:52;;;;;;;21.70;3.33;;;11.80;99.90;;;;;;5073527;28;20051;-79
2023/05/26 06:11:21;;;;;;;11.40;2.85;;;12.00;99.90;;;;;;5056927;28;20098;-79
2023/05/26 06:13:48;;;;;;;17.17;3.30;;;11.90;99.90;;;;;;5072896;28;20438;-79
2023/05/26 06:16:15;;;;;;;20.73;3.72;;;11.90;99.90;;;;;;5055591;28;20040;-79
2023/05/26 06:18:42;;;;;;;21.52;3.67;;;11.90;99.90;;;;;;5072841;28;20083;-79
2023/05/26 06:21:09;;;;;;;19.67;3.70;;;12.00;99.90;;;;;;5073283;28;20032;-78
2023/05/26 06:23:37;;;;;;;17.35;3.42;;;11.90;99.90;;;;;;5072332;28;20044;-78
2023/05/26 06:26:04;;;;;;;21.48;3.30;;;12.10;99.90;;;;;;5073175;28;20400;-78
2023/05/26 06:28:31;;;;;;;13.30;3.35;;;12.10;99.90;;;;;;5073680;28;20044;-78
2023/05/26 06:30:58;;;;;;;13.45;3.00;;;12.20;99.90;;;;;;5072486;28;20040;-79
2023/05/26 06:33:37;;;;;;;15.43;2.92;;;12.30;99.90;;;;;;5072848;28;20037;-79
2023/05/26 06:36:04;;;;;;;18.30;4.00;;;12.40;99.90;;;;;;5072297;28;20047;-78
2023/05/26 06:38:31;;;;;;;18.95;3.63;;;12.50;99.90;;;;;;5072839;28;20048;-78
2023/05/26 06:41:01;;;;;;;15.50;3.83;;;12.50;99.90;;;;;;5072513;28;20467;-78
2023/05/26 06:43:28;;;;;;;16.23;3.38;;;12.60;99.90;;;;;;5035625;28;20060;-77
2023/05/26 06:45:55;;;;;;;24.70;4.57;;;12.60;99.90;;;;;;5036801;28;20123;-78
2023/05/26 06:48:22;;;;;;;23.13;3.80;;;12.60;99.90;;;;;;5036045;28;20041;-78
2023/05/26 06:51:03;;;;;;;13.70;2.95;;;12.70;99.90;;;;;;5035401;28;20041;-78
2023/05/26 06:53:30;;;;;;;17.85;3.20;;;12.80;99.90;;;;;;5036688;28;20040;-79
2023/05/26 06:55:57;;;;;;;17.30;3.47;;;12.90;99.90;;;;;;5035251;28;20068;-79
2023/05/26 06:58:24;;;;;;;23.20;3.13;;;13.00;99.90;;;;;;5019276;28;20107;-79
2023/05/26 07:00:51;;;;;;;21.17;3.63;;;13.00;99.90;;;;;;5020176;28;20046;-79
2023/05/26 07:03:18;;;;;;;18.77;3.70;;;13.10;99.90;;;;;;5034958;28;20375;-79
2023/05/26 07:05:49;;;;;;;24.23;4.03;;;13.00;99.90;;;;;;5036208;28;20095;-78
2023/05/26 07:08:23;;;;;;;23.00;4.25;;;13.00;99.90;;;;;;5035660;28;20390;-79
2023/05/26 07:10:51;;;;;;;13.18;4.00;;;13.10;99.90;;;;;;5035002;28;20037;-80
2023/05/26 07:13:18;;;;;;;18.10;3.58;;;13.30;99.90;;;;;;5036194;28;20037;-78
2023/05/26 07:15:44;;;;;;;19.42;3.78;;;13.50;99.90;;;;;;5052306;28;20049;-79
2023/05/26 07:18:13;;;;;;;18.98;3.40;;;13.50;99.90;;;;;;5035838;28;20426;-79
2023/05/26 07:20:39;;;;;;;16.20;3.00;;;13.50;99.90;;;;;;5053573;28;20110;-79
2023/05/26 07:23:08;;;;;;;17.48;3.47;;;13.60;99.90;;;;;;5035052;28;20079;-78
2023/05/26 07:25:35;;;;;;;18.52;3.60;;;13.70;99.90;;;;;;5055587;28;20458;-78
2023/05/26 07:28:02;;;;;;;20.02;4.45;;;13.80;99.90;;;;;;5039306;28;20045;-79
2023/05/26 07:30:29;;;;;;;16.90;3.88;;;13.90;99.90;;;;;;5038582;28;20353;-78
2023/05/26 07:33:11;;;;;;;26.80;3.65;;;14.00;99.90;;;;;;5040217;28;20040;-78
2023/05/26 07:35:38;;;;;;;22.55;3.75;;;14.00;99.90;;;;;;5038517;28;20072;-78
2023/05/26 07:38:08;;;;;;;17.70;3.40;;;14.10;99.90;;;;;;5022843;28;20048;-79
2023/05/26 07:40:35;;;;;;;30.25;4.63;;;14.20;99.90;;;;;;5039504;28;20041;-79
2023/05/26 07:43:02;;;;;;;15.55;3.15;;;14.30;99.90;;;;;;5069880;28;20056;-79
2023/05/26 07:45:29;;;;;;;23.95;3.75;;;14.30;99.90;;;;;;5076972;28;20058;-79
2023/05/26 07:47:56;;;;;;;20.55;3.65;;;14.50;99.90;;;;;;5076180;28;20069;-79
2023/05/26 07:50:22;;;;;;;15.70;3.95;;;14.50;99.90;;;;;;5075191;28;20102;-78
2023/05/26 07:52:49;;;;;;;20.58;3.63;;;14.50;99.90;;;;;;5076686;28;20047;-78
2023/05/26 07:55:16;;;;;;;18.75;3.50;;;14.50;99.90;;;;;;5083828;28;20493;-79
2023/05/26 07:57:42;;;;;;;24.48;3.75;;;14.60;99.90;;;;;;5093831;28;20434;-81
2023/05/26 08:00:09;;;;;;;20.15;3.78;;;14.70;99.90;;;;;;5062574;28;20090;-82
2023/05/26 08:02:39;;;;;;;25.60;4.13;;;14.60;99.90;;;;;;5054699;28;20080;-82
2023/05/26 08:05:06;;;;;;;17.20;3.30;;;14.60;99.90;;;;;;5055195;28;20459;-79
2023/05/26 08:07:33;;;;;;;17.95;3.72;;;14.60;99.90;;;;;;5055608;28;20132;-79
2023/05/26 08:09:59;;;;;;;19.70;3.58;;;14.70;99.90;;;;;;5062813;28;20036;-79
2023/05/26 08:12:26;;;;;;;16.40;3.80;;;14.80;99.90;;;;;;5074884;28;20041;-79
2023/05/26 08:14:54;;;;;;;17.00;4.10;;;14.90;99.90;;;;;;5074758;28;20044;-78
2023/05/26 08:17:21;;;;;;;20.20;3.75;;;15.10;99.90;;;;;;5056387;28;20515;-78
2023/05/26 08:19:48;;;;;;;21.27;4.07;;;15.40;99.90;;;;;;5053931;28;20072;-78
2023/05/26 08:22:15;;;;;;;16.05;3.35;;;15.60;99.90;;;;;;5053997;28;20048;-79
2023/05/26 08:24:41;;;;;;;19.48;3.58;;;15.60;99.90;;;;;;5055524;28;20110;-82
2023/05/26 08:27:08;;;;;;;17.20;3.80;;;15.70;99.90;;;;;;5055875;28;20041;-83
2023/05/26 08:29:35;;;;;;;20.77;3.50;;;15.70;99.90;;;;;;5055223;28;20055;-79
2023/05/26 08:32:01;;;;;;;17.27;3.40;;;15.70;99.90;;;;;;5055136;28;20037;-84
2023/05/26 08:34:28;;;;;;;22.33;3.35;;;15.90;99.90;;;;;;5061169;28;20111;-82
2023/05/26 08:36:55;;;;;;;20.85;3.28;;;16.10;99.90;;;;;;5059927;28;20049;-77
2023/05/26 08:39:21;;;;;;;14.80;2.97;;;16.30;99.90;;;;;;5067810;28;20119;-77
2023/05/26 08:41:48;;;;;;;17.13;3.10;;;16.50;99.90;;;;;;5068227;28;20056;-80
2023/05/26 08:44:15;;;;;;;22.85;5.13;;;16.60;99.90;;;;;;5054130;28;20107;-78
2023/05/26 08:46:42;;;;;;;22.95;3.40;;;16.70;99.90;;;;;;5037828;28;20112;-77
2023/05/26 08:49:09;;;;;;;20.95;3.92;;;16.70;99.90;;;;;;5054188;28;20041;-77
2023/05/26 08:51:38;;;;;;;22.42;3.75;;;16.60;99.90;;;;;;5055518;28;20067;-81
2023/05/26 08:54:07;;;;;;;22.33;3.35;;;16.60;99.90;;;;;;5037399;28;20068;-81
2023/05/26 08:56:33;;;;;;;21.27;4.03;;;16.60;99.90;;;;;;5036683;28;20140;-79
2023/05/26 08:59:00;;;;;;;19.27;3.90;;;16.40;99.90;;;;;;5037719;28;20494;-81
2023/05/26 09:01:27;;;;;;;17.90;3.95;;;16.30;99.90;;;;;;5037239;28;20049;-80
2023/05/26 09:03:54;;;;;;;18.58;3.58;;;16.30;99.90;;;;;;5053642;28;20079;-80
2023/05/26 09:06:21;;;;;;;20.27;3.60;;;16.40;99.90;;;;;;5037643;28;20442;-80
2023/05/26 09:08:48;;;;;;;15.63;3.10;;;16.50;99.90;;;;;;5036361;28;20118;-81
2023/05/26 09:11:14;;;;;;;16.58;3.33;;;16.60;99.90;;;;;;5045487;28;20047;-80
2023/05/26 09:13:41;;;;;;;27.20;3.53;;;16.60;99.90;;;;;;5054421;28;20041;-80
2023/05/26 09:16:08;;;;;;;15.85;3.40;;;16.60;99.90;;;;;;5019019;28;20041;-80
2023/05/26 09:18:43;;;;;;;27.63;4.00;;;16.80;99.90;;;;;;5044043;28;20046;-80
2023/05/26 09:21:10;;;;;;;17.40;2.97;;;16.90;99.90;;;;;;5016881;28;20372;-80
2023/05/26 09:23:36;;;;;;;24.45;3.92;;;16.90;99.90;;;;;;5033452;28;20436;-81
2023/05/26 09:26:03;;;;;;;20.17;4.03;;;16.90;99.90;;;;;;5046839;28;20388;-80
2023/05/26 09:28:30;;;;;;;19.55;3.60;;;17.10;99.90;;;;;;5041288;28;20127;-81
2023/05/26 09:30:57;;;;;;;15.00;3.45;;;17.10;99.90;;;;;;5012884;28;20095;-79
2023/05/26 09:33:24;;;;;;;16.27;3.58;;;17.10;99.90;;;;;;5017249;28;20041;-79
2023/05/26 09:35:50;;;;;;;16.98;3.20;;;17.10;99.90;;;;;;5015622;28;20065;-80
2023/05/26 09:38:17;;;;;;;20.65;3.60;;;17.30;99.90;;;;;;5016913;28;20056;-80
2023/05/26 09:40:44;;;;;;;20.90;4.47;;;17.40;99.90;;;;;;5042173;28;20080;-78
2023/05/26 09:43:11;;;;;;;24.30;5.07;;;17.50;99.90;;;;;;5051120;28;20056;-80
2023/05/26 09:45:37;;;;;;;23.55;3.83;;;17.50;99.90;;;;;;5068436;28;20530;-80
2023/05/26 09:48:04;;;;;;;18.77;3.40;;;17.40;99.90;;;;;;5053632;28;20076;-81
2023/05/26 09:50:31;;;;;;;17.30;3.22;;;17.50;99.90;;;;;;5052597;28;20459;-80
2023/05/26 09:52:58;;;;;;;13.70;3.00;;;17.60;99.90;;;;;;5054106;28;20426;-81
2023/05/26 09:55:25;;;;;;;22.38;3.47;;;17.60;99.90;;;;;;5053400;28;20059;-82
2023/05/26 09:57:51;;;;;;;14.40;3.50;;;17.60;99.90;;;;;;5052148;28;20049;-81
2023/05/26 10:00:18;;;;;;;20.05;3.20;;;17.50;99.90;;;;;;5053319;28;20045;-82
2023/05/26 10:02:45;;;;;;;16.13;3.70;;;17.80;99.90;;;;;;5053839;28;20059;-82
2023/05/26 10:05:11;;;;;;;15.52;3.50;;;17.90;99.90;;;;;;5060448;28;20067;-84
2023/05/26 10:07:38;;;;;;;15.65;4.28;;;18.10;99.90;;;;;;5073344;28;20057;-83
2023/05/26 10:10:05;;;;;;;11.45;2.97;;;18.20;99.90;;;;;;5063539;28;20140;-82
2023/05/26 10:12:32;;;;;;;16.85;3.35;;;18.20;99.90;;;;;;5054276;28;20415;-82
2023/05/26 10:14:58;;;;;;;19.83;4.07;;;18.10;99.90;;;;;;5053560;28;20045;-82
2023/05/26 10:17:27;;;;;;;14.20;3.33;;;18.20;99.90;;;;;;5052508;28;20077;-82
2023/05/26 10:19:54;;;;;;;20.08;3.85;;;18.40;99.90;;;;;;5053680;28;20044;-83
2023/05/26 10:22:21;;;;;;;21.95;3.45;;;18.30;99.90;;;;;;5047877;28;20183;-83
2023/05/26 10:24:48;;;;;;;14.25;2.95;;;18.50;99.90;;;;;;5054229;28;20037;-81
2023/05/26 10:27:16;;;;;;;18.05;3.20;;;18.90;99.90;;;;;;5053114;28;20072;-82
2023/05/26 10:29:46;;;;;;;17.55;3.35;;;19.20;99.90;;;;;;5063605;28;20102;-81
2023/05/26 10:32:12;;;;;;;15.88;3.05;;;19.30;99.90;;;;;;5056514;28;20047;-81
2023/05/26 10:34:41;;;;;;;10.90;2.90;;;19.50;99.90;;;;;;5073004;28;20128;-82
2023/05/26 10:37:11;;;;;;;19.80;4.40;;;19.80;99.90;;;;;;5073700;28;20044;-82
2023/05/26 10:39:38;;;;;;;18.77;3.58;;;20.00;99.90;;;;;;5073567;28;20045;-82
2023/05/26 10:42:05;;;;;;;14.30;3.15;;;20.30;99.90;;;;;;5073069;28;20152;-81
2023/05/26 10:44:32;;;;;;;20.35;3.20;;;20.30;99.90;;;;;;5073218;28;20400;-82
2023/05/26 10:46:59;;;;;;;13.90;2.90;;;20.20;99.70;;;;;;5073788;28;20048;-81
2023/05/26 10:49:25;;;;;;;17.80;3.28;;;20.30;99.60;;;;;;5064188;28;20515;-82
2023/05/26 10:51:52;;;;;;;17.20;3.15;;;20.40;99.10;;;;;;5054875;28;20463;-82
2023/05/26 10:54:21;;;;;;;19.83;3.45;;;20.60;99.90;;;;;;5043811;28;20463;-80
2023/05/26 10:56:47;;;;;;;12.18;3.13;;;20.50;99.90;;;;;;5052264;28;20063;-80
2023/05/26 10:59:15;;;;;;;25.98;4.53;;;20.70;99.90;;;;;;5070786;28;20046;-80
2023/05/26 11:01:42;;;;;;;19.67;3.38;;;20.90;99.90;;;;;;5060441;28;20056;-82
2023/05/26 11:04:09;;;;;;;16.05;3.15;;;21.10;98.60;;;;;;5066585;28;20043;-81
2023/05/26 11:06:36;;;;;;;16.73;4.78;;;21.40;96.60;;;;;;5073265;28;20040;-82
2023/05/26 11:09:03;;;;;;;20.30;4.03;;;21.60;96.70;;;;;;5067764;28;20041;-81
2023/05/26 11:11:30;;;;;;;14.60;3.20;;;21.60;95.60;;;;;;5057238;28;20041;-83
2023/05/26 11:13:57;;;;;;;15.65;4.10;;;21.60;95.70;;;;;;5064863;28;20060;-82
2023/05/26 11:16:23;;;;;;;17.95;3.75;;;21.70;97.70;;;;;;5065131;28;20467;-82
2023/05/26 11:18:50;;;;;;;13.25;3.40;;;22.00;96.80;;;;;;5056809;28;20041;-82
2023/05/26 11:21:17;;;;;;;14.95;3.40;;;22.10;96.10;;;;;;5056735;28;20049;-82
2023/05/26 11:23:44;;;;;;;17.00;3.67;;;22.00;92.60;;;;;;5056161;28;20080;-82
2023/05/26 11:26:13;;;;;;;13.75;3.38;;;22.00;93.50;;;;;;5057276;28;20051;-82
2023/05/26 11:28:40;;;;;;;15.05;3.75;;;22.00;92.30;;;;;;5056411;28;20079;-82
2023/05/26 11:31:06;;;;;;;14.15;3.35;;;22.20;92.10;;;;;;5056346;28;20041;-82
2023/05/26 11:33:33;;;;;;;16.48;3.35;;;22.20;91.60;;;;;;5058943;28;20033;-81
2023/05/26 11:36:00;;;;;;;21.40;5.30;;;22.20;91.50;;;;;;5075416;28;20033;-80
2023/05/26 11:38:26;;;;;;;16.77;3.80;;;22.00;91.70;;;;;;5068348;28;20120;-81
2023/05/26 11:40:53;;;;;;;16.83;4.05;;;22.30;91.40;;;;;;5076120;28;20115;-81
2023/05/26 11:43:20;;;;;;;18.10;4.25;;;22.60;91.40;;;;;;5040880;28;20049;-81
2023/05/26 11:45:46;;;;;;;19.05;3.85;;;22.80;90.30;;;;;;5039444;28;20072;-82
2023/05/26 11:48:13;;;;;;;14.88;3.90;;;22.80;89.80;;;;;;5039462;28;20424;-82
2023/05/26 11:50:40;;;;;;;24.83;5.30;;;22.60;88.40;;;;;;5038635;28;20447;-83
2023/05/26 11:53:06;;;;;;;20.40;5.03;;;22.80;88.80;;;;;;5039573;28;20037;-82
2023/05/26 11:55:33;;;;;;;28.65;4.95;;;23.00;90.20;;;;;;5055831;28;20048;-81
2023/05/26 11:58:00;;;;;;;18.75;4.13;;;23.50;87.40;;;;;;5056834;28;20353;-82
2023/05/26 12:00:27;;;;;;;15.32;4.68;;;23.50;85.10;;;;;;5057199;28;20180;-82
2023/05/26 12:02:53;;;;;;;20.27;4.25;;;23.90;85.70;;;;;;5038122;28;20047;-82
2023/05/26 12:05:22;;;;;;;21.08;4.78;;;24.40;84.30;;;;;;5056442;28;20120;-81
2023/05/26 12:07:49;;;;;;;22.52;5.40;;;24.30;80.60;;;;;;5056456;28;20041;-82
2023/05/26 12:10:16;;;;;;;18.00;4.18;;;23.90;82.50;;;;;;5037826;28;20103;-82
2023/05/26 12:12:42;;;;;;;17.30;4.80;;;24.10;80.70;;;;;;5055392;28;20120;-81
2023/05/26 12:15:09;;;;;;;19.50;4.90;;;24.00;82.40;;;;;;5056251;28;20037;-82
2023/05/26 12:17:36;;;;;;;19.10;4.95;;;24.30;82.50;;;;;;5038349;28;20102;-82
2023/05/26 12:20:05;;;;;;;23.58;5.05;;;24.30;80.00;;;;;;5039029;28;20041;-83
2023/05/26 12:22:41;;;;;;;18.00;3.47;;;24.40;80.60;;;;;;5039378;28;20374;-81
2023/05/26 12:25:07;;;;;;;18.58;3.88;;;24.30;78.80;;;;;;5054939;28;20041;-84
2023/05/26 12:27:35;;;;;;;23.13;5.32;;;24.00;80.70;;;;;;5022569;28;20072;-84
2023/05/26 12:30:02;;;;;;;18.52;3.80;;;24.20;78.80;;;;;;5055357;28;20045;-84
2023/05/26 12:32:28;;;;;;;26.30;5.13;;;24.20;79.00;;;;;;5038839;28;20419;-81
2023/05/26 12:34:55;;;;;;;19.65;5.50;;;24.70;80.10;;;;;;5056266;28;20091;-83
2023/05/26 12:37:22;;;;;;;21.15;5.30;;;25.10;78.90;;;;;;5037316;28;20103;-83
2023/05/26 12:39:49;;;;;;;19.67;5.07;;;25.50;77.40;;;;;;5038690;28;20045;-83